sensor_id;sensor_type;location;lat;lon;timestamp;P1;durP1;ratioP1;P2;durP2;ratioP2
74229;SDS011;62589;12.568;99.958;2023-03-23T00:01:26;20.25;;;15.88;;
74229;SDS011;62589;12.568;99.958;2023-03-23T00:03:55;22.88;;;15.75;;
74229;SDS011;62589;12.568;99.958;2023-03-23T00:06:24;22.27;;;16.23;;
74229;SDS011;62589;12.568;99.958;2023-03-23T00:08:53;24.08;;;15.98;;
74229;SDS011;62589;12.568;99.958;2023-03-23T00:11:28;22.70;;;16.63;;
74229;SDS011;62589;12.568;99.958;2023-03-23T00:13:56;22.80;;;16.45;;
74229;SDS011;62589;12.568;99.958;2023-03-23T00:16:27;23.75;;;15.85;;
74229;SDS011;62589;12.568;99.958;2023-03-23T00:18:58;24.35;;;17.13;;
74229;SDS011;62589;12.568;99.958;2023-03-23T00:21:27;21.02;;;15.25;;
74229;SDS011;62589;12.568;99.958;2023-03-23T00:24:07;19.98;;;15.75;;
74229;SDS011;62589;12.568;99.958;2023-03-23T00:26:47;19.20;;;15.07;;
74229;SDS011;62589;12.568;99.958;2023-03-23T00:29:19;24.10;;;16.42;;
74229;SDS011;62589;12.568;99.958;2023-03-23T00:31:48;23.17;;;16.15;;
74229;SDS011;62589;12.568;99.958;2023-03-23T00:34:15;19.98;;;15.00;;
74229;SDS011;62589;12.568;99.958;2023-03-23T00:36:45;21.48;;;14.80;;
74229;SDS011;62589;12.568;99.958;2023-03-23T00:39:13;19.83;;;14.70;;
74229;SDS011;62589;12.568;99.958;2023-03-23T00:41:42;19.17;;;14.43;;
74229;SDS011;62589;12.568;99.958;2023-03-23T00:44:10;21.23;;;14.55;;
74229;SDS011;62589;12.568;99.958;2023-03-23T00:46:45;16.25;;;13.30;;
74229;SDS011;62589;12.568;99.958;2023-03-23T00:49:18;18.27;;;13.30;;
74229;SDS011;62589;12.568;99.958;2023-03-23T00:51:49;19.17;;;14.05;;
74229;SDS011;62589;12.568;99.958;2023-03-23T00:54:17;19.10;;;14.35;;
74229;SDS011;62589;12.568;99.958;2023-03-23T00:56:43;19.23;;;13.23;;
74229;SDS011;62589;12.568;99.958;2023-03-23T00:59:10;19.33;;;14.25;;
74229;SDS011;62589;12.568;99.958;2023-03-23T01:01:36;18.02;;;14.32;;
74229;SDS011;62589;12.568;99.958;2023-03-23T01:04:03;19.13;;;14.20;;
74229;SDS011;62589;12.568;99.958;2023-03-23T01:06:30;16.92;;;13.10;;
74229;SDS011;62589;12.568;99.958;2023-03-23T01:09:00;19.15;;;13.40;;
74229;SDS011;62589;12.568;99.958;2023-03-23T01:11:28;19.23;;;13.18;;
74229;SDS011;62589;12.568;99.958;2023-03-23T01:13:55;14.15;;;12.60;;
74229;SDS011;62589;12.568;99.958;2023-03-23T01:16:21;16.88;;;12.73;;
74229;SDS011;62589;12.568;99.958;2023-03-23T01:18:48;18.88;;;14.52;;
74229;SDS011;62589;12.568;99.958;2023-03-23T01:21:16;19.27;;;13.80;;
74229;SDS011;62589;12.568;99.958;2023-03-23T01:23:44;18.80;;;14.45;;
74229;SDS011;62589;12.568;99.958;2023-03-23T01:26:13;21.65;;;14.07;;
74229;SDS011;62589;12.568;99.958;2023-03-23T01:28:42;18.70;;;14.82;;
74229;SDS011;62589;12.568;99.958;2023-03-23T01:31:11;23.27;;;14.48;;
74229;SDS011;62589;12.568;99.958;2023-03-23T01:33:39;18.73;;;14.55;;
74229;SDS011;62589;12.568;99.958;2023-03-23T01:36:09;22.77;;;15.43;;
74229;SDS011;62589;12.568;99.958;2023-03-23T01:38:37;26.92;;;16.60;;
74229;SDS011;62589;12.568;99.958;2023-03-23T01:41:04;19.40;;;14.45;;
74229;SDS011;62589;12.568;99.958;2023-03-23T01:43:31;18.30;;;13.90;;
74229;SDS011;62589;12.568;99.958;2023-03-23T01:46:00;18.70;;;14.55;;
74229;SDS011;62589;12.568;99.958;2023-03-23T01:48:29;18.42;;;13.52;;
74229;SDS011;62589;12.568;99.958;2023-03-23T01:51:07;15.68;;;12.70;;
74229;SDS011;62589;12.568;99.958;2023-03-23T01:53:39;20.38;;;13.13;;
74229;SDS011;62589;12.568;99.958;2023-03-23T01:56:10;20.02;;;13.30;;
74229;SDS011;62589;12.568;99.958;2023-03-23T01:58:39;17.35;;;12.98;;
74229;SDS011;62589;12.568;99.958;2023-03-23T02:01:08;17.48;;;13.15;;
74229;SDS011;62589;12.568;99.958;2023-03-23T02:04:13;14.68;;;12.70;;
74229;SDS011;62589;12.568;99.958;2023-03-23T02:06:43;16.45;;;12.30;;
74229;SDS011;62589;12.568;99.958;2023-03-23T03:13:41;19.50;;;13.52;;
74229;SDS011;62589;12.568;99.958;2023-03-23T03:19:27;18.45;;;12.57;;
74229;SDS011;62589;12.568;99.958;2023-03-23T03:22:01;16.50;;;12.15;;
74229;SDS011;62589;12.568;99.958;2023-03-23T03:24:30;18.08;;;12.43;;
74229;SDS011;62589;12.568;99.958;2023-03-23T03:26:58;17.83;;;12.50;;
74229;SDS011;62589;12.568;99.958;2023-03-23T03:29:30;19.73;;;12.00;;
74229;SDS011;62589;12.568;99.958;2023-03-23T03:32:06;16.02;;;11.13;;
74229;SDS011;62589;12.568;99.958;2023-03-23T03:34:39;16.58;;;11.20;;
74229;SDS011;62589;12.568;99.958;2023-03-23T03:37:06;13.63;;;10.23;;
74229;SDS011;62589;12.568;99.958;2023-03-23T03:39:35;14.18;;;11.20;;
74229;SDS011;62589;12.568;99.958;2023-03-23T03:42:02;15.77;;;11.13;;
74229;SDS011;62589;12.568;99.958;2023-03-23T03:44:30;17.08;;;11.15;;
74229;SDS011;62589;12.568;99.958;2023-03-23T03:46:57;14.05;;;10.32;;
74229;SDS011;62589;12.568;99.958;2023-03-23T03:49:23;12.55;;;10.38;;
74229;SDS011;62589;12.568;99.958;2023-03-23T03:51:51;13.68;;;10.38;;
74229;SDS011;62589;12.568;99.958;2023-03-23T03:54:17;15.65;;;10.75;;
74229;SDS011;62589;12.568;99.958;2023-03-23T03:56:43;11.70;;;9.75;;
74229;SDS011;62589;12.568;99.958;2023-03-23T03:59:11;16.55;;;10.13;;
74229;SDS011;62589;12.568;99.958;2023-03-23T04:01:38;13.18;;;10.40;;
74229;SDS011;62589;12.568;99.958;2023-03-23T04:04:04;13.93;;;10.75;;
74229;SDS011;62589;12.568;99.958;2023-03-23T04:06:34;14.27;;;10.23;;
74229;SDS011;62589;12.568;99.958;2023-03-23T04:09:03;13.32;;;10.18;;
74229;SDS011;62589;12.568;99.958;2023-03-23T04:11:32;15.18;;;10.75;;
74229;SDS011;62589;12.568;99.958;2023-03-23T07:04:44;20.15;;;13.80;;
74229;SDS011;62589;12.568;99.958;2023-03-23T07:07:12;19.42;;;14.38;;
74229;SDS011;62589;12.568;99.958;2023-03-23T07:09:39;20.77;;;14.30;;
74229;SDS011;62589;12.568;99.958;2023-03-23T07:12:07;16.92;;;13.30;;
74229;SDS011;62589;12.568;99.958;2023-03-23T07:14:35;18.45;;;12.77;;
74229;SDS011;62589;12.568;99.958;2023-03-23T07:17:02;19.50;;;11.77;;
74229;SDS011;62589;12.568;99.958;2023-03-23T07:19:29;17.33;;;11.77;;
74229;SDS011;62589;12.568;99.958;2023-03-23T07:21:56;17.08;;;11.88;;
74229;SDS011;62589;12.568;99.958;2023-03-23T07:24:22;14.93;;;11.70;;
74229;SDS011;62589;12.568;99.958;2023-03-23T07:26:49;13.68;;;10.55;;
74229;SDS011;62589;12.568;99.958;2023-03-23T07:29:16;16.95;;;10.75;;
74229;SDS011;62589;12.568;99.958;2023-03-23T07:31:42;15.93;;;10.77;;
74229;SDS011;62589;12.568;99.958;2023-03-23T07:34:09;19.27;;;11.32;;
74229;SDS011;62589;12.568;99.958;2023-03-23T07:36:35;16.25;;;10.38;;
74229;SDS011;62589;12.568;99.958;2023-03-23T07:39:03;17.88;;;11.05;;
74229;SDS011;62589;12.568;99.958;2023-03-23T07:41:33;14.13;;;10.57;;
74229;SDS011;62589;12.568;99.958;2023-03-23T07:44:00;14.77;;;10.32;;
74229;SDS011;62589;12.568;99.958;2023-03-23T07:46:27;16.08;;;10.07;;
74229;SDS011;62589;12.568;99.958;2023-03-23T07:48:53;14.43;;;9.75;;
74229;SDS011;62589;12.568;99.958;2023-03-23T07:51:20;15.27;;;9.50;;
74229;SDS011;62589;12.568;99.958;2023-03-23T07:53:47;14.57;;;8.00;;
74229;SDS011;62589;12.568;99.958;2023-03-23T07:56:15;11.50;;;8.95;;
74229;SDS011;62589;12.568;99.958;2023-03-23T07:58:44;10.98;;;8.13;;
74229;SDS011;62589;12.568;99.958;2023-03-23T08:01:11;13.88;;;8.65;;
74229;SDS011;62589;12.568;99.958;2023-03-23T08:03:39;11.40;;;9.48;;
74229;SDS011;62589;12.568;99.958;2023-03-23T08:06:06;15.82;;;10.80;;
74229;SDS011;62589;12.568;99.958;2023-03-23T08:08:33;14.65;;;9.15;;
74229;SDS011;62589;12.568;99.958;2023-03-23T08:11:00;15.35;;;10.25;;
74229;SDS011;62589;12.568;99.958;2023-03-23T08:13:27;9.77;;;8.35;;
74229;SDS011;62589;12.568;99.958;2023-03-23T08:15:54;15.52;;;9.60;;
74229;SDS011;62589;12.568;99.958;2023-03-23T08:18:24;13.18;;;8.40;;
74229;SDS011;62589;12.568;99.958;2023-03-23T08:20:51;13.30;;;8.38;;
74229;SDS011;62589;12.568;99.958;2023-03-23T08:23:19;10.80;;;7.95;;
74229;SDS011;62589;12.568;99.958;2023-03-23T08:25:47;11.13;;;7.50;;
74229;SDS011;62589;12.568;99.958;2023-03-23T08:28:14;13.93;;;8.50;;
74229;SDS011;62589;12.568;99.958;2023-03-23T08:30:40;12.52;;;7.47;;
74229;SDS011;62589;12.568;99.958;2023-03-23T08:33:08;10.95;;;7.70;;
74229;SDS011;62589;12.568;99.958;2023-03-23T08:35:35;12.95;;;7.30;;
74229;SDS011;62589;12.568;99.958;2023-03-23T08:38:02;9.93;;;7.40;;
74229;SDS011;62589;12.568;99.958;2023-03-23T08:40:29;12.07;;;7.68;;
74229;SDS011;62589;12.568;99.958;2023-03-23T08:42:55;10.75;;;7.97;;
74229;SDS011;62589;12.568;99.958;2023-03-23T08:45:23;11.70;;;7.97;;
74229;SDS011;62589;12.568;99.958;2023-03-23T08:47:52;12.70;;;7.72;;
74229;SDS011;62589;12.568;99.958;2023-03-23T08:50:21;11.38;;;7.97;;
74229;SDS011;62589;12.568;99.958;2023-03-23T08:52:50;10.35;;;7.55;;
74229;SDS011;62589;12.568;99.958;2023-03-23T08:55:18;12.98;;;8.60;;
74229;SDS011;62589;12.568;99.958;2023-03-23T08:57:46;10.98;;;7.53;;
74229;SDS011;62589;12.568;99.958;2023-03-23T09:00:18;12.85;;;7.45;;
74229;SDS011;62589;12.568;99.958;2023-03-23T09:05:15;14.00;;;8.68;;
74229;SDS011;62589;12.568;99.958;2023-03-23T09:07:45;13.73;;;8.40;;
74229;SDS011;62589;12.568;99.958;2023-03-23T09:10:13;13.75;;;7.57;;
74229;SDS011;62589;12.568;99.958;2023-03-23T09:12:40;14.32;;;7.68;;
74229;SDS011;62589;12.568;99.958;2023-03-23T09:15:08;13.10;;;7.20;;
74229;SDS011;62589;12.568;99.958;2023-03-23T09:17:38;17.77;;;8.02;;
74229;SDS011;62589;12.568;99.958;2023-03-23T09:20:07;8.65;;;6.85;;
74229;SDS011;62589;12.568;99.958;2023-03-23T09:22:38;11.23;;;7.43;;
74229;SDS011;62589;12.568;99.958;2023-03-23T09:25:06;12.50;;;7.43;;
74229;SDS011;62589;12.568;99.958;2023-03-23T09:27:35;13.20;;;7.72;;
74229;SDS011;62589;12.568;99.958;2023-03-23T09:30:11;14.90;;;7.80;;
74229;SDS011;62589;12.568;99.958;2023-03-23T09:32:39;12.55;;;7.57;;
74229;SDS011;62589;12.568;99.958;2023-03-23T09:35:09;11.48;;;7.45;;
74229;SDS011;62589;12.568;99.958;2023-03-23T09:37:37;12.85;;;7.18;;
74229;SDS011;62589;12.568;99.958;2023-03-23T09:40:06;14.07;;;7.40;;
74229;SDS011;62589;12.568;99.958;2023-03-23T09:45:30;17.25;;;8.63;;
74229;SDS011;62589;12.568;99.958;2023-03-23T09:51:08;14.90;;;8.18;;
74229;SDS011;62589;12.568;99.958;2023-03-23T09:53:46;15.13;;;8.45;;
74229;SDS011;62589;12.568;99.958;2023-03-23T09:56:16;11.35;;;7.47;;
74229;SDS011;62589;12.568;99.958;2023-03-23T09:58:55;13.68;;;7.70;;
74229;SDS011;62589;12.568;99.958;2023-03-23T10:01:35;12.30;;;7.63;;
74229;SDS011;62589;12.568;99.958;2023-03-23T10:06:58;11.02;;;7.15;;
74229;SDS011;62589;12.568;99.958;2023-03-23T10:09:31;12.18;;;7.43;;
74229;SDS011;62589;12.568;99.958;2023-03-23T10:15:09;14.63;;;8.27;;
74229;SDS011;62589;12.568;99.958;2023-03-23T10:17:59;17.90;;;8.40;;
74229;SDS011;62589;12.568;99.958;2023-03-23T10:29:22;12.60;;;8.20;;
74229;SDS011;62589;12.568;99.958;2023-03-23T10:32:01;15.68;;;8.50;;
74229;SDS011;62589;12.568;99.958;2023-03-23T10:37:27;11.35;;;8.32;;
74229;SDS011;62589;12.568;99.958;2023-03-23T10:40:04;13.70;;;8.60;;
74229;SDS011;62589;12.568;99.958;2023-03-23T10:42:36;13.65;;;8.63;;
74229;SDS011;62589;12.568;99.958;2023-03-23T10:50:57;16.83;;;9.73;;
74229;SDS011;62589;12.568;99.958;2023-03-23T10:59:15;14.93;;;9.95;;
74229;SDS011;62589;12.568;99.958;2023-03-23T11:02:00;13.00;;;10.27;;
74229;SDS011;62589;12.568;99.958;2023-03-23T11:04:38;16.63;;;9.55;;
74229;SDS011;62589;12.568;99.958;2023-03-23T11:07:05;15.10;;;9.63;;
74229;SDS011;62589;12.568;99.958;2023-03-23T11:09:53;16.63;;;10.07;;
74229;SDS011;62589;12.568;99.958;2023-03-23T11:12:23;14.40;;;9.52;;
74229;SDS011;62589;12.568;99.958;2023-03-23T11:14:51;15.50;;;9.43;;
74229;SDS011;62589;12.568;99.958;2023-03-23T11:17:25;12.93;;;9.32;;
74229;SDS011;62589;12.568;99.958;2023-03-23T11:19:52;15.32;;;10.02;;
74229;SDS011;62589;12.568;99.958;2023-03-23T11:22:26;15.82;;;9.85;;
74229;SDS011;62589;12.568;99.958;2023-03-23T11:24:56;18.05;;;9.40;;
74229;SDS011;62589;12.568;99.958;2023-03-23T11:27:26;14.73;;;9.38;;
74229;SDS011;62589;12.568;99.958;2023-03-23T11:29:56;15.18;;;9.07;;
74229;SDS011;62589;12.568;99.958;2023-03-23T11:32:33;15.10;;;9.48;;
74229;SDS011;62589;12.568;99.958;2023-03-23T11:35:21;14.60;;;9.02;;
74229;SDS011;62589;12.568;99.958;2023-03-23T11:38:00;17.25;;;9.18;;
74229;SDS011;62589;12.568;99.958;2023-03-23T11:40:42;15.40;;;8.82;;
74229;SDS011;62589;12.568;99.958;2023-03-23T11:43:46;24.17;;;12.85;;
74229;SDS011;62589;12.568;99.958;2023-03-23T11:46:34;26.00;;;16.42;;
74229;SDS011;62589;12.568;99.958;2023-03-23T11:52:09;59.75;;;29.40;;
74229;SDS011;62589;12.568;99.958;2023-03-23T11:57:35;21.00;;;13.23;;
74229;SDS011;62589;12.568;99.958;2023-03-23T12:00:02;22.77;;;10.93;;
74229;SDS011;62589;12.568;99.958;2023-03-23T12:05:43;18.17;;;10.55;;
74229;SDS011;62589;12.568;99.958;2023-03-23T12:08:27;16.05;;;8.68;;
74229;SDS011;62589;12.568;99.958;2023-03-23T12:14:17;18.15;;;10.27;;
74229;SDS011;62589;12.568;99.958;2023-03-23T12:16:58;17.52;;;10.73;;
74229;SDS011;62589;12.568;99.958;2023-03-23T12:19:48;13.98;;;9.27;;
74229;SDS011;62589;12.568;99.958;2023-03-23T12:22:44;13.35;;;9.15;;
74229;SDS011;62589;12.568;99.958;2023-03-23T12:28:29;13.98;;;10.07;;
74229;SDS011;62589;12.568;99.958;2023-03-23T12:31:21;11.80;;;9.55;;
74229;SDS011;62589;12.568;99.958;2023-03-23T12:33:55;11.65;;;9.32;;
74229;SDS011;62589;12.568;99.958;2023-03-23T12:36:52;12.15;;;9.00;;
74229;SDS011;62589;12.568;99.958;2023-03-23T12:40:01;12.73;;;8.90;;
74229;SDS011;62589;12.568;99.958;2023-03-23T12:42:51;12.88;;;8.88;;
74229;SDS011;62589;12.568;99.958;2023-03-23T12:45:41;14.35;;;9.43;;
74229;SDS011;62589;12.568;99.958;2023-03-23T12:48:33;15.30;;;8.55;;
74229;SDS011;62589;12.568;99.958;2023-03-23T12:56:42;12.15;;;8.25;;
74229;SDS011;62589;12.568;99.958;2023-03-23T12:59:28;12.98;;;8.73;;
74229;SDS011;62589;12.568;99.958;2023-03-23T13:02:28;12.18;;;8.43;;
74229;SDS011;62589;12.568;99.958;2023-03-23T13:10:47;10.18;;;8.10;;
74229;SDS011;62589;12.568;99.958;2023-03-23T13:13:17;11.57;;;8.80;;
74229;SDS011;62589;12.568;99.958;2023-03-23T13:18:44;11.32;;;8.05;;
74229;SDS011;62589;12.568;99.958;2023-03-23T13:21:32;11.77;;;8.20;;
74229;SDS011;62589;12.568;99.958;2023-03-23T13:24:12;11.02;;;8.23;;
74229;SDS011;62589;12.568;99.958;2023-03-23T13:26:41;13.07;;;9.02;;
74229;SDS011;62589;12.568;99.958;2023-03-23T13:29:13;17.02;;;9.43;;
74229;SDS011;62589;12.568;99.958;2023-03-23T13:31:44;12.85;;;8.65;;
74229;SDS011;62589;12.568;99.958;2023-03-23T13:34:15;11.18;;;8.98;;
74229;SDS011;62589;12.568;99.958;2023-03-23T13:36:54;13.18;;;9.88;;
74229;SDS011;62589;12.568;99.958;2023-03-23T13:39:24;12.70;;;9.50;;
74229;SDS011;62589;12.568;99.958;2023-03-23T13:45:05;14.50;;;10.00;;
74229;SDS011;62589;12.568;99.958;2023-03-23T13:47:39;16.42;;;10.23;;
74229;SDS011;62589;12.568;99.958;2023-03-23T13:52:59;15.07;;;10.18;;
74229;SDS011;62589;12.568;99.958;2023-03-23T13:55:41;17.10;;;10.43;;
74229;SDS011;62589;12.568;99.958;2023-03-23T13:58:21;13.05;;;9.32;;
74229;SDS011;62589;12.568;99.958;2023-03-23T14:01:00;10.65;;;9.02;;
74229;SDS011;62589;12.568;99.958;2023-03-23T14:03:53;15.45;;;9.80;;
74229;SDS011;62589;12.568;99.958;2023-03-23T14:06:24;13.52;;;9.25;;
74229;SDS011;62589;12.568;99.958;2023-03-23T14:08:52;12.75;;;8.20;;
74229;SDS011;62589;12.568;99.958;2023-03-23T14:11:22;11.32;;;8.10;;
74229;SDS011;62589;12.568;99.958;2023-03-23T14:16:40;17.05;;;9.07;;
74229;SDS011;62589;12.568;99.958;2023-03-23T14:19:18;10.88;;;7.88;;
74229;SDS011;62589;12.568;99.958;2023-03-23T14:21:54;11.10;;;8.00;;
74229;SDS011;62589;12.568;99.958;2023-03-23T14:27:09;13.43;;;8.57;;
74229;SDS011;62589;12.568;99.958;2023-03-23T14:29:41;11.13;;;8.18;;
74229;SDS011;62589;12.568;99.958;2023-03-23T14:32:12;9.88;;;8.05;;
74229;SDS011;62589;12.568;99.958;2023-03-23T14:34:46;12.02;;;8.63;;
74229;SDS011;62589;12.568;99.958;2023-03-23T14:37:14;14.07;;;8.57;;
74229;SDS011;62589;12.568;99.958;2023-03-23T14:39:44;10.13;;;7.90;;
74229;SDS011;62589;12.568;99.958;2023-03-23T14:42:18;10.55;;;8.02;;
74229;SDS011;62589;12.568;99.958;2023-03-23T14:44:50;13.38;;;7.80;;
74229;SDS011;62589;12.568;99.958;2023-03-23T14:47:19;10.95;;;7.72;;
74229;SDS011;62589;12.568;99.958;2023-03-23T14:52:48;9.00;;;7.65;;
74229;SDS011;62589;12.568;99.958;2023-03-23T14:55:19;11.70;;;7.78;;
74229;SDS011;62589;12.568;99.958;2023-03-23T14:57:48;9.63;;;7.63;;
74229;SDS011;62589;12.568;99.958;2023-03-23T15:00:18;9.23;;;7.13;;
74229;SDS011;62589;12.568;99.958;2023-03-23T15:02:49;8.87;;;7.07;;
74229;SDS011;62589;12.568;99.958;2023-03-23T15:05:26;8.63;;;7.25;;
74229;SDS011;62589;12.568;99.958;2023-03-23T15:07:59;8.32;;;7.15;;
74229;SDS011;62589;12.568;99.958;2023-03-23T15:10:31;9.38;;;7.20;;
74229;SDS011;62589;12.568;99.958;2023-03-23T15:12:58;11.85;;;7.88;;
74229;SDS011;62589;12.568;99.958;2023-03-23T15:15:26;8.98;;;6.90;;
74229;SDS011;62589;12.568;99.958;2023-03-23T15:17:55;9.25;;;7.38;;
74229;SDS011;62589;12.568;99.958;2023-03-23T15:20:30;10.13;;;7.68;;
74229;SDS011;62589;12.568;99.958;2023-03-23T15:23:13;10.45;;;7.47;;
74229;SDS011;62589;12.568;99.958;2023-03-23T15:25:50;12.10;;;7.90;;
74229;SDS011;62589;12.568;99.958;2023-03-23T15:28:19;10.68;;;7.13;;
74229;SDS011;62589;12.568;99.958;2023-03-23T15:30:50;10.05;;;7.80;;
74229;SDS011;62589;12.568;99.958;2023-03-23T15:33:19;9.98;;;8.35;;
74229;SDS011;62589;12.568;99.958;2023-03-23T15:35:52;13.60;;;7.72;;
74229;SDS011;62589;12.568;99.958;2023-03-23T15:38:29;12.52;;;7.60;;
74229;SDS011;62589;12.568;99.958;2023-03-23T15:40:58;13.45;;;7.80;;
74229;SDS011;62589;12.568;99.958;2023-03-23T15:43:33;11.73;;;7.30;;
74229;SDS011;62589;12.568;99.958;2023-03-23T15:48:52;10.32;;;7.25;;
74229;SDS011;62589;12.568;99.958;2023-03-23T15:51:31;13.13;;;7.50;;
74229;SDS011;62589;12.568;99.958;2023-03-23T15:53:58;14.20;;;8.13;;
74229;SDS011;62589;12.568;99.958;2023-03-23T15:56:33;14.73;;;8.10;;
74229;SDS011;62589;12.568;99.958;2023-03-23T15:59:00;11.93;;;7.15;;
74229;SDS011;62589;12.568;99.958;2023-03-23T16:01:27;15.20;;;7.53;;
74229;SDS011;62589;12.568;99.958;2023-03-23T16:06:41;10.23;;;7.30;;
74229;SDS011;62589;12.568;99.958;2023-03-23T16:09:12;12.30;;;7.85;;
74229;SDS011;62589;12.568;99.958;2023-03-23T16:11:41;11.93;;;7.90;;
74229;SDS011;62589;12.568;99.958;2023-03-23T16:14:11;15.43;;;7.93;;
74229;SDS011;62589;12.568;99.958;2023-03-23T16:16:41;11.48;;;7.95;;
74229;SDS011;62589;12.568;99.958;2023-03-23T16:19:13;10.43;;;7.20;;
74229;SDS011;62589;12.568;99.958;2023-03-23T16:21:41;12.20;;;7.68;;
74229;SDS011;62589;12.568;99.958;2023-03-23T16:24:07;10.80;;;7.60;;
74229;SDS011;62589;12.568;99.958;2023-03-23T16:26:35;11.15;;;7.65;;
74229;SDS011;62589;12.568;99.958;2023-03-23T16:29:08;10.13;;;7.40;;
74229;SDS011;62589;12.568;99.958;2023-03-23T16:31:39;14.27;;;7.97;;
74229;SDS011;62589;12.568;99.958;2023-03-23T16:34:05;9.70;;;7.88;;
74229;SDS011;62589;12.568;99.958;2023-03-23T16:36:32;11.00;;;8.20;;
74229;SDS011;62589;12.568;99.958;2023-03-23T16:38:59;12.73;;;7.97;;
74229;SDS011;62589;12.568;99.958;2023-03-23T16:41:26;12.63;;;8.68;;
74229;SDS011;62589;12.568;99.958;2023-03-23T16:43:52;11.40;;;8.38;;
74229;SDS011;62589;12.568;99.958;2023-03-23T16:46:21;11.82;;;8.25;;
74229;SDS011;62589;12.568;99.958;2023-03-23T16:48:48;11.48;;;7.80;;
74229;SDS011;62589;12.568;99.958;2023-03-23T16:51:15;12.35;;;7.93;;
74229;SDS011;62589;12.568;99.958;2023-03-23T16:53:41;10.98;;;8.18;;
74229;SDS011;62589;12.568;99.958;2023-03-23T16:56:08;12.73;;;7.90;;
74229;SDS011;62589;12.568;99.958;2023-03-23T16:58:35;11.95;;;7.68;;
74229;SDS011;62589;12.568;99.958;2023-03-23T17:01:01;14.95;;;8.15;;
74229;SDS011;62589;12.568;99.958;2023-03-23T17:03:28;11.13;;;8.07;;
74229;SDS011;62589;12.568;99.958;2023-03-23T17:05:55;10.60;;;7.68;;
74229;SDS011;62589;12.568;99.958;2023-03-23T17:08:23;13.82;;;8.10;;
74229;SDS011;62589;12.568;99.958;2023-03-23T17:10:50;12.30;;;8.93;;
74229;SDS011;62589;12.568;99.958;2023-03-23T17:13:16;11.18;;;8.23;;
74229;SDS011;62589;12.568;99.958;2023-03-23T17:15:43;11.43;;;8.43;;
74229;SDS011;62589;12.568;99.958;2023-03-23T17:18:10;12.38;;;8.68;;
74229;SDS011;62589;12.568;99.958;2023-03-23T17:20:37;12.93;;;7.85;;
74229;SDS011;62589;12.568;99.958;2023-03-23T17:23:04;10.40;;;8.30;;
74229;SDS011;62589;12.568;99.958;2023-03-23T17:25:31;12.90;;;8.38;;
74229;SDS011;62589;12.568;99.958;2023-03-23T17:27:57;12.52;;;8.18;;
74229;SDS011;62589;12.568;99.958;2023-03-23T17:30:24;11.77;;;8.55;;
74229;SDS011;62589;12.568;99.958;2023-03-23T17:32:51;12.70;;;8.05;;
74229;SDS011;62589;12.568;99.958;2023-03-23T17:35:17;18.10;;;9.15;;
74229;SDS011;62589;12.568;99.958;2023-03-23T17:37:44;10.48;;;7.95;;
74229;SDS011;62589;12.568;99.958;2023-03-23T17:40:11;11.73;;;8.50;;
74229;SDS011;62589;12.568;99.958;2023-03-23T17:42:38;10.57;;;7.90;;
74229;SDS011;62589;12.568;99.958;2023-03-23T17:45:06;10.80;;;8.60;;
74229;SDS011;62589;12.568;99.958;2023-03-23T17:47:34;14.60;;;8.93;;
74229;SDS011;62589;12.568;99.958;2023-03-23T17:50:01;13.32;;;9.20;;
74229;SDS011;62589;12.568;99.958;2023-03-23T17:52:31;13.38;;;8.82;;
74229;SDS011;62589;12.568;99.958;2023-03-23T17:54:57;10.90;;;8.93;;
74229;SDS011;62589;12.568;99.958;2023-03-23T17:57:24;11.70;;;9.05;;
74229;SDS011;62589;12.568;99.958;2023-03-23T17:59:50;13.05;;;8.65;;
74229;SDS011;62589;12.568;99.958;2023-03-23T18:02:17;15.23;;;8.98;;
74229;SDS011;62589;12.568;99.958;2023-03-23T18:04:44;10.68;;;8.82;;
74229;SDS011;62589;12.568;99.958;2023-03-23T18:07:11;11.80;;;8.60;;
74229;SDS011;62589;12.568;99.958;2023-03-23T18:09:39;11.70;;;8.75;;
74229;SDS011;62589;12.568;99.958;2023-03-23T18:12:06;13.52;;;8.32;;
74229;SDS011;62589;12.568;99.958;2023-03-23T18:14:32;10.85;;;8.85;;
74229;SDS011;62589;12.568;99.958;2023-03-23T18:16:59;11.93;;;8.23;;
74229;SDS011;62589;12.568;99.958;2023-03-23T18:19:26;12.48;;;8.32;;
74229;SDS011;62589;12.568;99.958;2023-03-23T18:21:53;12.52;;;8.82;;
74229;SDS011;62589;12.568;99.958;2023-03-23T18:24:19;11.38;;;8.63;;
74229;SDS011;62589;12.568;99.958;2023-03-23T18:26:46;10.02;;;8.27;;
74229;SDS011;62589;12.568;99.958;2023-03-23T18:29:12;12.65;;;8.20;;
74229;SDS011;62589;12.568;99.958;2023-03-23T18:31:39;10.50;;;8.40;;
74229;SDS011;62589;12.568;99.958;2023-03-23T18:34:05;11.77;;;8.88;;
74229;SDS011;62589;12.568;99.958;2023-03-23T18:36:32;11.75;;;8.70;;
74229;SDS011;62589;12.568;99.958;2023-03-23T18:38:59;12.57;;;9.07;;
74229;SDS011;62589;12.568;99.958;2023-03-23T18:41:25;12.90;;;8.80;;
74229;SDS011;62589;12.568;99.958;2023-03-23T18:43:52;15.35;;;9.35;;
74229;SDS011;62589;12.568;99.958;2023-03-23T18:46:18;13.30;;;9.73;;
74229;SDS011;62589;12.568;99.958;2023-03-23T18:48:44;12.95;;;8.77;;
74229;SDS011;62589;12.568;99.958;2023-03-23T18:51:11;15.57;;;10.15;;
74229;SDS011;62589;12.568;99.958;2023-03-23T18:53:37;17.48;;;9.63;;
74229;SDS011;62589;12.568;99.958;2023-03-23T18:56:12;13.52;;;9.63;;
74229;SDS011;62589;12.568;99.958;2023-03-23T18:58:40;13.15;;;9.13;;
74229;SDS011;62589;12.568;99.958;2023-03-23T19:01:09;11.65;;;9.30;;
74229;SDS011;62589;12.568;99.958;2023-03-23T19:03:37;12.88;;;9.27;;
74229;SDS011;62589;12.568;99.958;2023-03-23T19:06:04;14.43;;;9.25;;
74229;SDS011;62589;12.568;99.958;2023-03-23T19:08:31;12.25;;;9.82;;
74229;SDS011;62589;12.568;99.958;2023-03-23T19:11:00;15.70;;;9.88;;
74229;SDS011;62589;12.568;99.958;2023-03-23T19:13:28;15.73;;;10.43;;
74229;SDS011;62589;12.568;99.958;2023-03-23T19:15:58;12.82;;;9.65;;
74229;SDS011;62589;12.568;99.958;2023-03-23T19:18:25;16.50;;;11.10;;
74229;SDS011;62589;12.568;99.958;2023-03-23T19:20:51;18.63;;;11.10;;
74229;SDS011;62589;12.568;99.958;2023-03-23T19:23:18;15.82;;;10.50;;
74229;SDS011;62589;12.568;99.958;2023-03-23T19:25:46;15.73;;;10.00;;
74229;SDS011;62589;12.568;99.958;2023-03-23T19:28:12;16.17;;;10.27;;
74229;SDS011;62589;12.568;99.958;2023-03-23T19:30:43;15.45;;;9.57;;
74229;SDS011;62589;12.568;99.958;2023-03-23T19:33:12;20.05;;;10.07;;
74229;SDS011;62589;12.568;99.958;2023-03-23T19:35:39;15.18;;;9.43;;
74229;SDS011;62589;12.568;99.958;2023-03-23T19:38:06;15.23;;;9.70;;
74229;SDS011;62589;12.568;99.958;2023-03-23T19:40:32;15.18;;;10.10;;
74229;SDS011;62589;12.568;99.958;2023-03-23T19:43:02;15.77;;;9.60;;
74229;SDS011;62589;12.568;99.958;2023-03-23T19:45:30;13.75;;;9.00;;
74229;SDS011;62589;12.568;99.958;2023-03-23T19:47:57;15.70;;;9.90;;
74229;SDS011;62589;12.568;99.958;2023-03-23T19:50:24;14.90;;;10.20;;
74229;SDS011;62589;12.568;99.958;2023-03-23T19:52:50;13.20;;;9.40;;
74229;SDS011;62589;12.568;99.958;2023-03-23T19:55:17;12.85;;;9.95;;
74229;SDS011;62589;12.568;99.958;2023-03-23T19:57:43;11.65;;;9.02;;
74229;SDS011;62589;12.568;99.958;2023-03-23T20:00:10;14.10;;;10.43;;
74229;SDS011;62589;12.568;99.958;2023-03-23T20:02:37;11.93;;;9.35;;
74229;SDS011;62589;12.568;99.958;2023-03-23T20:05:04;13.57;;;9.50;;